sensor_id;sensor_type;location;lat;lon;timestamp;P1;durP1;ratioP1;P2;durP2;ratioP2
58152;SDS011;43967;51.634;5.566;2023-04-24T00:01:55;5.20;;;1.70;;
58152;SDS011;43967;51.634;5.566;2023-04-24T00:07:16;5.20;;;1.90;;
58152;SDS011;43967;51.634;5.566;2023-04-24T00:12:38;4.80;;;1.55;;
58152;SDS011;43967;51.634;5.566;2023-04-24T00:17:59;5.40;;;1.98;;
58152;SDS011;43967;51.634;5.566;2023-04-24T00:23:20;4.87;;;1.60;;
58152;SDS011;43967;51.634;5.566;2023-04-24T00:28:42;4.90;;;1.52;;
58152;SDS011;43967;51.634;5.566;2023-04-24T00:34:03;6.10;;;1.70;;
58152;SDS011;43967;51.634;5.566;2023-04-24T00:39:25;5.40;;;2.00;;
58152;SDS011;43967;51.634;5.566;2023-04-24T00:44:46;5.20;;;1.50;;
58152;SDS011;43967;51.634;5.566;2023-04-24T00:50:08;4.90;;;1.40;;
58152;SDS011;43967;51.634;5.566;2023-04-24T00:55:30;5.70;;;1.80;;
58152;SDS011;43967;51.634;5.566;2023-04-24T01:00:51;5.17;;;1.67;;
58152;SDS011;43967;51.634;5.566;2023-04-24T01:06:13;5.60;;;2.00;;
58152;SDS011;43967;51.634;5.566;2023-04-24T01:11:34;5.82;;;2.00;;
58152;SDS011;43967;51.634;5.566;2023-04-24T01:16:56;6.43;;;2.00;;
58152;SDS011;43967;51.634;5.566;2023-04-24T01:22:18;5.65;;;1.67;;
58152;SDS011;43967;51.634;5.566;2023-04-24T01:27:39;6.53;;;2.08;;
58152;SDS011;43967;51.634;5.566;2023-04-24T01:33:00;5.60;;;2.00;;
58152;SDS011;43967;51.634;5.566;2023-04-24T01:50:19;5.80;;;2.30;;
58152;SDS011;43967;51.634;5.566;2023-04-24T01:55:41;6.17;;;1.90;;
58152;SDS011;43967;51.634;5.566;2023-04-24T02:01:02;5.90;;;2.30;;
58152;SDS011;43967;51.634;5.566;2023-04-24T02:06:23;6.78;;;2.20;;
58152;SDS011;43967;51.634;5.566;2023-04-24T02:11:45;6.27;;;2.23;;
58152;SDS011;43967;51.634;5.566;2023-04-24T02:17:06;6.93;;;2.40;;
58152;SDS011;43967;51.634;5.566;2023-04-24T02:22:27;6.38;;;2.28;;
58152;SDS011;43967;51.634;5.566;2023-04-24T02:27:48;6.17;;;2.57;;
58152;SDS011;43967;51.634;5.566;2023-04-24T02:33:10;6.50;;;2.58;;
58152;SDS011;43967;51.634;5.566;2023-04-24T02:38:32;6.40;;;2.63;;
58152;SDS011;43967;51.634;5.566;2023-04-24T02:43:53;6.30;;;2.67;;
58152;SDS011;43967;51.634;5.566;2023-04-24T02:49:14;7.10;;;2.90;;
58152;SDS011;43967;51.634;5.566;2023-04-24T02:54:35;6.70;;;3.08;;
58152;SDS011;43967;51.634;5.566;2023-04-24T02:59:57;6.32;;;2.63;;
58152;SDS011;43967;51.634;5.566;2023-04-24T03:05:18;6.70;;;2.80;;
58152;SDS011;43967;51.634;5.566;2023-04-24T03:10:39;6.65;;;2.95;;
58152;SDS011;43967;51.634;5.566;2023-04-24T03:16:01;6.65;;;2.63;;
58152;SDS011;43967;51.634;5.566;2023-04-24T03:21:22;7.17;;;2.80;;
58152;SDS011;43967;51.634;5.566;2023-04-24T03:26:43;6.97;;;3.10;;
58152;SDS011;43967;51.634;5.566;2023-04-24T03:32:04;6.57;;;2.83;;
58152;SDS011;43967;51.634;5.566;2023-04-24T03:37:26;7.40;;;2.50;;
58152;SDS011;43967;51.634;5.566;2023-04-24T03:42:47;6.33;;;2.67;;
58152;SDS011;43967;51.634;5.566;2023-04-24T03:48:08;6.75;;;2.90;;
58152;SDS011;43967;51.634;5.566;2023-04-24T03:53:29;6.45;;;2.88;;
58152;SDS011;43967;51.634;5.566;2023-04-24T03:58:51;6.33;;;2.70;;
58152;SDS011;43967;51.634;5.566;2023-04-24T04:04:12;6.80;;;3.00;;
58152;SDS011;43967;51.634;5.566;2023-04-24T04:09:33;7.03;;;2.85;;
58152;SDS011;43967;51.634;5.566;2023-04-24T04:14:55;6.93;;;3.07;;
58152;SDS011;43967;51.634;5.566;2023-04-24T04:20:16;6.50;;;2.70;;
58152;SDS011;43967;51.634;5.566;2023-04-24T04:25:37;6.97;;;2.88;;
58152;SDS011;43967;51.634;5.566;2023-04-24T04:30:58;5.90;;;2.60;;
58152;SDS011;43967;51.634;5.566;2023-04-24T04:36:20;6.70;;;2.40;;
58152;SDS011;43967;51.634;5.566;2023-04-24T04:41:41;8.48;;;3.20;;
58152;SDS011;43967;51.634;5.566;2023-04-24T04:47:02;6.30;;;2.80;;
58152;SDS011;43967;51.634;5.566;2023-04-24T04:52:24;6.67;;;2.90;;
58152;SDS011;43967;51.634;5.566;2023-04-24T04:57:45;6.25;;;2.72;;
58152;SDS011;43967;51.634;5.566;2023-04-24T05:03:06;7.18;;;2.50;;
58152;SDS011;43967;51.634;5.566;2023-04-24T05:08:28;7.00;;;3.10;;
58152;SDS011;43967;51.634;5.566;2023-04-24T05:13:50;6.75;;;2.70;;
58152;SDS011;43967;51.634;5.566;2023-04-24T05:19:11;6.32;;;2.40;;
58152;SDS011;43967;51.634;5.566;2023-04-24T05:24:33;7.00;;;2.60;;
58152;SDS011;43967;51.634;5.566;2023-04-24T05:29:54;6.40;;;2.80;;
58152;SDS011;43967;51.634;5.566;2023-04-24T05:35:15;6.60;;;2.40;;
58152;SDS011;43967;51.634;5.566;2023-04-24T05:40:37;6.38;;;2.80;;
58152;SDS011;43967;51.634;5.566;2023-04-24T05:45:58;6.00;;;2.40;;
58152;SDS011;43967;51.634;5.566;2023-04-24T05:51:19;6.45;;;2.58;;
58152;SDS011;43967;51.634;5.566;2023-04-24T05:56:41;6.13;;;2.30;;
58152;SDS011;43967;51.634;5.566;2023-04-24T06:02:02;6.37;;;2.60;;
58152;SDS011;43967;51.634;5.566;2023-04-24T06:07:24;6.53;;;2.25;;
58152;SDS011;43967;51.634;5.566;2023-04-24T06:12:45;6.10;;;2.50;;
58152;SDS011;43967;51.634;5.566;2023-04-24T06:18:07;5.70;;;2.10;;
58152;SDS011;43967;51.634;5.566;2023-04-24T06:23:28;6.25;;;2.20;;
58152;SDS011;43967;51.634;5.566;2023-04-24T06:28:49;6.03;;;2.20;;
58152;SDS011;43967;51.634;5.566;2023-04-24T06:34:11;5.50;;;2.00;;
58152;SDS011;43967;51.634;5.566;2023-04-24T06:39:32;5.13;;;1.77;;
58152;SDS011;43967;51.634;5.566;2023-04-24T06:44:53;6.38;;;2.10;;
58152;SDS011;43967;51.634;5.566;2023-04-24T06:50:15;5.60;;;1.83;;
58152;SDS011;43967;51.634;5.566;2023-04-24T06:55:36;5.30;;;2.10;;
58152;SDS011;43967;51.634;5.566;2023-04-24T07:00:57;6.22;;;2.10;;
58152;SDS011;43967;51.634;5.566;2023-04-24T07:06:18;6.32;;;2.22;;
58152;SDS011;43967;51.634;5.566;2023-04-24T07:11:40;6.40;;;2.20;;
58152;SDS011;43967;51.634;5.566;2023-04-24T07:17:02;5.80;;;2.07;;
58152;SDS011;43967;51.634;5.566;2023-04-24T07:22:24;5.43;;;1.90;;
58152;SDS011;43967;51.634;5.566;2023-04-24T07:27:45;5.80;;;1.90;;
58152;SDS011;43967;51.634;5.566;2023-04-24T07:33:06;5.83;;;1.90;;
58152;SDS011;43967;51.634;5.566;2023-04-24T07:38:29;5.95;;;2.08;;
58152;SDS011;43967;51.634;5.566;2023-04-24T07:43:50;5.78;;;2.15;;
58152;SDS011;43967;51.634;5.566;2023-04-24T07:49:12;6.00;;;2.23;;
58152;SDS011;43967;51.634;5.566;2023-04-24T07:54:33;5.50;;;2.05;;
58152;SDS011;43967;51.634;5.566;2023-04-24T07:59:54;6.13;;;2.15;;
58152;SDS011;43967;51.634;5.566;2023-04-24T08:05:15;5.93;;;2.10;;
58152;SDS011;43967;51.634;5.566;2023-04-24T08:10:37;6.27;;;2.43;;
58152;SDS011;43967;51.634;5.566;2023-04-24T08:15:58;7.55;;;2.30;;
58152;SDS011;43967;51.634;5.566;2023-04-24T08:21:20;8.52;;;2.38;;
58152;SDS011;43967;51.634;5.566;2023-04-24T08:26:41;7.57;;;2.20;;
58152;SDS011;43967;51.634;5.566;2023-04-24T08:32:02;6.57;;;2.05;;
58152;SDS011;43967;51.634;5.566;2023-04-24T08:37:24;6.82;;;2.03;;
58152;SDS011;43967;51.634;5.566;2023-04-24T08:42:46;6.33;;;2.40;;
58152;SDS011;43967;51.634;5.566;2023-04-24T08:48:07;7.55;;;2.08;;
58152;SDS011;43967;51.634;5.566;2023-04-24T08:53:30;6.72;;;2.20;;
58152;SDS011;43967;51.634;5.566;2023-04-24T08:58:53;13.40;;;2.67;;
58152;SDS011;43967;51.634;5.566;2023-04-24T09:04:14;9.67;;;2.40;;
58152;SDS011;43967;51.634;5.566;2023-04-24T09:09:37;10.60;;;2.70;;
58152;SDS011;43967;51.634;5.566;2023-04-24T09:15:00;8.13;;;2.30;;
58152;SDS011;43967;51.634;5.566;2023-04-24T09:20:22;10.57;;;2.40;;
58152;SDS011;43967;51.634;5.566;2023-04-24T09:25:43;8.63;;;2.30;;
58152;SDS011;43967;51.634;5.566;2023-04-24T09:31:06;8.23;;;2.17;;
58152;SDS011;43967;51.634;5.566;2023-04-24T09:36:31;7.87;;;2.70;;
58152;SDS011;43967;51.634;5.566;2023-04-24T09:41:54;8.25;;;1.90;;
58152;SDS011;43967;51.634;5.566;2023-04-24T09:47:16;6.45;;;2.00;;
58152;SDS011;43967;51.634;5.566;2023-04-24T09:52:44;7.10;;;2.10;;
58152;SDS011;43967;51.634;5.566;2023-04-24T09:58:08;9.23;;;2.30;;
58152;SDS011;43967;51.634;5.566;2023-04-24T10:03:29;7.63;;;2.10;;
58152;SDS011;43967;51.634;5.566;2023-04-24T10:08:51;8.65;;;2.20;;
58152;SDS011;43967;51.634;5.566;2023-04-24T10:14:13;6.83;;;1.80;;
58152;SDS011;43967;51.634;5.566;2023-04-24T10:19:36;8.13;;;2.22;;
58152;SDS011;43967;51.634;5.566;2023-04-24T10:24:58;6.32;;;1.98;;
58152;SDS011;43967;51.634;5.566;2023-04-24T10:30:20;6.80;;;2.10;;
58152;SDS011;43967;51.634;5.566;2023-04-24T10:35:42;6.65;;;2.13;;
58152;SDS011;43967;51.634;5.566;2023-04-24T10:41:06;6.85;;;2.00;;
58152;SDS011;43967;51.634;5.566;2023-04-24T10:46:29;7.23;;;2.23;;
58152;SDS011;43967;51.634;5.566;2023-04-24T10:51:51;6.73;;;1.80;;
58152;SDS011;43967;51.634;5.566;2023-04-24T11:02:41;6.40;;;2.15;;
58152;SDS011;43967;51.634;5.566;2023-04-24T11:19:22;6.07;;;1.90;;
58152;SDS011;43967;51.634;5.566;2023-04-24T11:30:08;6.20;;;1.77;;
58152;SDS011;43967;51.634;5.566;2023-04-24T11:35:30;6.25;;;2.20;;
58152;SDS011;43967;51.634;5.566;2023-04-24T11:40:56;5.70;;;1.80;;
58152;SDS011;43967;51.634;5.566;2023-04-24T11:46:17;6.00;;;2.20;;
58152;SDS011;43967;51.634;5.566;2023-04-24T11:51:41;5.75;;;1.90;;
58152;SDS011;43967;51.634;5.566;2023-04-24T11:57:05;7.18;;;2.13;;
58152;SDS011;43967;51.634;5.566;2023-04-24T12:02:26;5.77;;;1.70;;
58152;SDS011;43967;51.634;5.566;2023-04-24T12:07:48;5.72;;;1.80;;
58152;SDS011;43967;51.634;5.566;2023-04-24T12:13:09;6.35;;;1.75;;
58152;SDS011;43967;51.634;5.566;2023-04-24T12:18:30;6.23;;;1.93;;
58152;SDS011;43967;51.634;5.566;2023-04-24T12:23:54;6.63;;;1.77;;
58152;SDS011;43967;51.634;5.566;2023-04-24T12:29:21;5.88;;;1.67;;
58152;SDS011;43967;51.634;5.566;2023-04-24T12:34:43;6.57;;;2.30;;
58152;SDS011;43967;51.634;5.566;2023-04-24T12:40:06;5.63;;;1.60;;
58152;SDS011;43967;51.634;5.566;2023-04-24T12:45:29;5.28;;;1.75;;
58152;SDS011;43967;51.634;5.566;2023-04-24T12:50:50;5.57;;;1.90;;
58152;SDS011;43967;51.634;5.566;2023-04-24T12:56:11;5.60;;;1.60;;
58152;SDS011;43967;51.634;5.566;2023-04-24T13:01:32;5.57;;;1.73;;
58152;SDS011;43967;51.634;5.566;2023-04-24T13:06:54;5.85;;;1.80;;
58152;SDS011;43967;51.634;5.566;2023-04-24T13:12:15;6.67;;;2.27;;
58152;SDS011;43967;51.634;5.566;2023-04-24T13:17:37;4.82;;;1.50;;
58152;SDS011;43967;51.634;5.566;2023-04-24T13:22:58;6.82;;;2.00;;
58152;SDS011;43967;51.634;5.566;2023-04-24T13:28:19;6.10;;;1.90;;
58152;SDS011;43967;51.634;5.566;2023-04-24T13:33:40;6.27;;;1.60;;
58152;SDS011;43967;51.634;5.566;2023-04-24T13:39:02;5.90;;;1.95;;
58152;SDS011;43967;51.634;5.566;2023-04-24T13:44:23;6.43;;;1.67;;
58152;SDS011;43967;51.634;5.566;2023-04-24T13:49:45;5.40;;;1.50;;
58152;SDS011;43967;51.634;5.566;2023-04-24T13:55:07;5.70;;;1.88;;
58152;SDS011;43967;51.634;5.566;2023-04-24T14:00:28;5.93;;;1.60;;
58152;SDS011;43967;51.634;5.566;2023-04-24T14:05:49;5.80;;;1.63;;
58152;SDS011;43967;51.634;5.566;2023-04-24T14:11:10;5.68;;;1.45;;
58152;SDS011;43967;51.634;5.566;2023-04-24T14:16:32;5.28;;;1.73;;
58152;SDS011;43967;51.634;5.566;2023-04-24T14:21:53;6.07;;;1.50;;
58152;SDS011;43967;51.634;5.566;2023-04-24T14:27:14;6.23;;;1.93;;
58152;SDS011;43967;51.634;5.566;2023-04-24T14:32:36;5.88;;;1.80;;
58152;SDS011;43967;51.634;5.566;2023-04-24T14:37:58;5.90;;;1.50;;
58152;SDS011;43967;51.634;5.566;2023-04-24T14:43:19;5.53;;;1.50;;
58152;SDS011;43967;51.634;5.566;2023-04-24T14:48:41;5.70;;;1.83;;
58152;SDS011;43967;51.634;5.566;2023-04-24T14:54:02;5.68;;;1.48;;
58152;SDS011;43967;51.634;5.566;2023-04-24T14:59:23;5.30;;;1.50;;
58152;SDS011;43967;51.634;5.566;2023-04-24T15:04:44;5.55;;;1.35;;
58152;SDS011;43967;51.634;5.566;2023-04-24T15:10:06;5.60;;;1.60;;
58152;SDS011;43967;51.634;5.566;2023-04-24T15:15:28;5.77;;;2.00;;
58152;SDS011;43967;51.634;5.566;2023-04-24T15:20:49;5.07;;;1.70;;
58152;SDS011;43967;51.634;5.566;2023-04-24T15:26:11;7.45;;;2.13;;
58152;SDS011;43967;51.634;5.566;2023-04-24T15:31:32;5.25;;;1.45;;
58152;SDS011;43967;51.634;5.566;2023-04-24T15:36:54;4.93;;;1.50;;
58152;SDS011;43967;51.634;5.566;2023-04-24T15:42:15;4.90;;;1.50;;
58152;SDS011;43967;51.634;5.566;2023-04-24T15:47:36;5.60;;;1.30;;
58152;SDS011;43967;51.634;5.566;2023-04-24T15:52:58;6.27;;;2.30;;
58152;SDS011;43967;51.634;5.566;2023-04-24T15:58:19;5.18;;;1.40;;
58152;SDS011;43967;51.634;5.566;2023-04-24T16:03:41;5.25;;;1.80;;
58152;SDS011;43967;51.634;5.566;2023-04-24T16:09:02;6.40;;;1.90;;
58152;SDS011;43967;51.634;5.566;2023-04-24T16:14:23;5.10;;;1.60;;
58152;SDS011;43967;51.634;5.566;2023-04-24T16:19:45;6.75;;;1.70;;
58152;SDS011;43967;51.634;5.566;2023-04-24T16:25:06;5.65;;;1.90;;
58152;SDS011;43967;51.634;5.566;2023-04-24T16:30:29;5.23;;;1.27;;
58152;SDS011;43967;51.634;5.566;2023-04-24T16:35:50;5.72;;;1.60;;
58152;SDS011;43967;51.634;5.566;2023-04-24T16:41:11;5.50;;;1.98;;
58152;SDS011;43967;51.634;5.566;2023-04-24T16:46:33;6.13;;;1.70;;
58152;SDS011;43967;51.634;5.566;2023-04-24T16:51:54;5.25;;;1.50;;
58152;SDS011;43967;51.634;5.566;2023-04-24T16:57:16;5.65;;;1.60;;
58152;SDS011;43967;51.634;5.566;2023-04-24T17:02:37;6.83;;;1.70;;
58152;SDS011;43967;51.634;5.566;2023-04-24T17:07:58;5.53;;;1.73;;
58152;SDS011;43967;51.634;5.566;2023-04-24T17:13:19;6.05;;;1.75;;
58152;SDS011;43967;51.634;5.566;2023-04-24T17:18:41;5.43;;;1.73;;
58152;SDS011;43967;51.634;5.566;2023-04-24T17:24:02;5.97;;;1.50;;
58152;SDS011;43967;51.634;5.566;2023-04-24T17:29:23;5.05;;;1.48;;
58152;SDS011;43967;51.634;5.566;2023-04-24T17:34:45;5.20;;;1.42;;
58152;SDS011;43967;51.634;5.566;2023-04-24T17:40:06;5.90;;;1.60;;
58152;SDS011;43967;51.634;5.566;2023-04-24T17:45:28;4.95;;;1.55;;
58152;SDS011;43967;51.634;5.566;2023-04-24T17:50:49;6.57;;;1.98;;
58152;SDS011;43967;51.634;5.566;2023-04-24T17:56:10;6.00;;;2.20;;
58152;SDS011;43967;51.634;5.566;2023-04-24T18:01:32;7.33;;;2.10;;
58152;SDS011;43967;51.634;5.566;2023-04-24T18:06:53;5.70;;;1.80;;
58152;SDS011;43967;51.634;5.566;2023-04-24T18:12:14;5.90;;;1.70;;
58152;SDS011;43967;51.634;5.566;2023-04-24T18:17:36;5.53;;;1.63;;
58152;SDS011;43967;51.634;5.566;2023-04-24T18:22:57;6.20;;;1.90;;
58152;SDS011;43967;51.634;5.566;2023-04-24T18:28:18;5.38;;;1.85;;
58152;SDS011;43967;51.634;5.566;2023-04-24T18:33:39;6.73;;;1.80;;
58152;SDS011;43967;51.634;5.566;2023-04-24T18:39:01;6.50;;;2.03;;
58152;SDS011;43967;51.634;5.566;2023-04-24T18:44:23;5.22;;;1.73;;
58152;SDS011;43967;51.634;5.566;2023-04-24T18:49:44;6.10;;;1.93;;
58152;SDS011;43967;51.634;5.566;2023-04-24T18:55:05;6.47;;;2.07;;
58152;SDS011;43967;51.634;5.566;2023-04-24T19:00:27;7.63;;;2.42;;
58152;SDS011;43967;51.634;5.566;2023-04-24T19:05:48;6.60;;;2.03;;
58152;SDS011;43967;51.634;5.566;2023-04-24T19:11:10;6.10;;;1.77;;
58152;SDS011;43967;51.634;5.566;2023-04-24T19:16:31;5.80;;;1.90;;
58152;SDS011;43967;51.634;5.566;2023-04-24T19:21:52;6.55;;;1.88;;
58152;SDS011;43967;51.634;5.566;2023-04-24T19:27:14;6.70;;;1.97;;
58152;SDS011;43967;51.634;5.566;2023-04-24T19:32:35;6.10;;;1.70;;
58152;SDS011;43967;51.634;5.566;2023-04-24T19:37:56;5.55;;;1.50;;
58152;SDS011;43967;51.634;5.566;2023-04-24T19:43:18;7.27;;;1.77;;
58152;SDS011;43967;51.634;5.566;2023-04-24T19:48:39;6.97;;;2.20;;
58152;SDS011;43967;51.634;5.566;2023-04-24T19:54:00;7.65;;;2.30;;
58152;SDS011;43967;51.634;5.566;2023-04-24T19:59:21;6.45;;;1.90;;
58152;SDS011;43967;51.634;5.566;2023-04-24T20:04:43;6.27;;;1.93;;
58152;SDS011;43967;51.634;5.566;2023-04-24T20:10:04;7.28;;;1.98;;
58152;SDS011;43967;51.634;5.566;2023-04-24T20:15:26;7.53;;;2.00;;
58152;SDS011;43967;51.634;5.566;2023-04-24T20:20:47;8.20;;;2.30;;
58152;SDS011;43967;51.634;5.566;2023-04-24T20:26:09;7.38;;;1.88;;
58152;SDS011;43967;51.634;5.566;2023-04-24T20:31:30;6.88;;;1.83;;
58152;SDS011;43967;51.634;5.566;2023-04-24T20:36:51;6.50;;;2.20;;
58152;SDS011;43967;51.634;5.566;2023-04-24T20:42:12;7.80;;;2.20;;
58152;SDS011;43967;51.634;5.566;2023-04-24T20:47:34;8.10;;;2.20;;
58152;SDS011;43967;51.634;5.566;2023-04-24T20:52:55;8.13;;;2.45;;
58152;SDS011;43967;51.634;5.566;2023-04-24T20:58:16;7.50;;;1.83;;
58152;SDS011;43967;51.634;5.566;2023-04-24T21:03:37;6.97;;;1.88;;
58152;SDS011;43967;51.634;5.566;2023-04-24T21:08:59;6.78;;;2.03;;
58152;SDS011;43967;51.634;5.566;2023-04-24T21:14:20;6.90;;;2.30;;
58152;SDS011;43967;51.634;5.566;2023-04-24T21:19:41;8.00;;;2.05;;
58152;SDS011;43967;51.634;5.566;2023-04-24T21:25:02;6.60;;;2.00;;
58152;SDS011;43967;51.634;5.566;2023-04-24T21:30:24;7.30;;;2.07;;
58152;SDS011;43967;51.634;5.566;2023-04-24T21:35:45;7.27;;;2.20;;
58152;SDS011;43967;51.634;5.566;2023-04-24T21:41:07;6.88;;;2.10;;
58152;SDS011;43967;51.634;5.566;2023-04-24T21:46:28;7.50;;;2.15;;
58152;SDS011;43967;51.634;5.566;2023-04-24T21:51:49;6.50;;;1.93;;
58152;SDS011;43967;51.634;5.566;2023-04-24T21:57:10;6.15;;;2.15;;
58152;SDS011;43967;51.634;5.566;2023-04-24T22:02:32;6.00;;;2.10;;
58152;SDS011;43967;51.634;5.566;2023-04-24T22:07:54;7.37;;;1.93;;
58152;SDS011;43967;51.634;5.566;2023-04-24T22:13:16;7.32;;;2.25;;
58152;SDS011;43967;51.634;5.566;2023-04-24T22:18:37;6.88;;;2.08;;
58152;SDS011;43967;51.634;5.566;2023-04-24T22:23:58;7.37;;;2.43;;
58152;SDS011;43967;51.634;5.566;2023-04-24T22:29:19;6.93;;;2.30;;
58152;SDS011;43967;51.634;5.566;2023-04-24T22:34:41;6.68;;;2.17;;
58152;SDS011;43967;51.634;5.566;2023-04-24T22:40:02;6.65;;;2.00;;
58152;SDS011;43967;51.634;5.566;2023-04-24T22:45:23;7.47;;;1.90;;
58152;SDS011;43967;51.634;5.566;2023-04-24T22:50:45;8.23;;;2.70;;
58152;SDS011;43967;51.634;5.566;2023-04-24T22:56:06;6.72;;;2.05;;
58152;SDS011;43967;51.634;5.566;2023-04-24T23:01:27;7.57;;;2.33;;
58152;SDS011;43967;51.634;5.566;2023-04-24T23:06:48;6.70;;;1.90;;
58152;SDS011;43967;51.634;5.566;2023-04-24T23:12:10;6.70;;;2.00;;
58152;SDS011;43967;51.634;5.566;2023-04-24T23:17:31;6.97;;;2.17;;
58152;SDS011;43967;51.634;5.566;2023-04-24T23:22:52;6.17;;;2.00;;
58152;SDS011;43967;51.634;5.566;2023-04-24T23:28:13;6.35;;;2.15;;
58152;SDS011;43967;51.634;5.566;2023-04-24T23:33:35;7.78;;;2.22;;
58152;SDS011;43967;51.634;5.566;2023-04-24T23:38:56;6.07;;;2.00;;
58152;SDS011;43967;51.634;5.566;2023-04-24T23:44:17;7.72;;;2.05;;
58152;SDS011;43967;51.634;5.566;2023-04-24T23:49:39;7.72;;;2.00;;
58152;SDS011;43967;51.634;5.566;2023-04-24T23:55:01;6.00;;;1.90;;
